Time;durP1;ratioP1;P1;durP2;ratioP2;P2;SDS_P1;SDS_P2;PMS_P1;PMS_P2;Temp;Humidity;BMP_temperature;BMP_pressure;BME280_temperature;BME280_humidity;BME280_pressure;Samples;Min_cycle;Max_cycle;Signal;HPM_P1;HPM_P2
2021/06/08 00:01:51;;;;;;;28.73;25.70;;;;;;;;;;5074084;28;20020;-60
2021/06/08 00:04:16;;;;;;;28.05;24.85;;;;;;;;;;5073176;28;20392;-60
2021/06/08 00:06:42;;;;;;;27.10;24.23;;;;;;;;;;5070012;28;20048;-59
2021/06/08 00:09:07;;;;;;;29.27;26.15;;;;;;;;;;5073183;28;20019;-60
2021/06/08 00:11:32;;;;;;;28.27;25.08;;;;;;;;;;5068511;28;20502;-60
2021/06/08 00:13:58;;;;;;;27.65;23.67;;;;;;;;;;5071745;28;20364;-59
2021/06/08 00:16:23;;;;;;;27.95;24.88;;;;;;;;;;5072001;28;20020;-59
2021/06/08 00:18:48;;;;;;;27.85;23.65;;;;;;;;;;5068634;28;20052;-60
2021/06/08 00:21:13;;;;;;;27.83;24.70;;;;;;;;;;5072903;28;20078;-60
2021/06/08 00:23:39;;;;;;;26.63;23.67;;;;;;;;;;5072970;28;20436;-60
2021/06/08 00:26:04;;;;;;;26.80;23.92;;;;;;;;;;5072920;28;20020;-60
2021/06/08 00:28:29;;;;;;;30.15;26.45;;;;;;;;;;5070045;28;20020;-60
2021/06/08 00:30:54;;;;;;;26.83;24.02;;;;;;;;;;5073408;28;20468;-60
2021/06/08 00:33:20;;;;;;;28.52;25.00;;;;;;;;;;5072772;28;20077;-59
2021/06/08 00:35:45;;;;;;;27.10;24.15;;;;;;;;;;5080635;28;20673;-60
2021/06/08 00:38:10;;;;;;;28.80;25.58;;;;;;;;;;5068471;28;20027;-60
2021/06/08 00:40:35;;;;;;;29.17;25.98;;;;;;;;;;5072646;28;20067;-60
2021/06/08 00:43:00;;;;;;;26.70;23.90;;;;;;;;;;5072695;28;20506;-59
2021/06/08 00:45:26;;;;;;;28.98;25.80;;;;;;;;;;5072628;28;20019;-60
2021/06/08 00:47:51;;;;;;;29.20;26.05;;;;;;;;;;5069709;28;20025;-60
2021/06/08 00:50:17;;;;;;;29.10;24.30;;;;;;;;;;5070775;28;20059;-60
2021/06/08 00:52:42;;;;;;;28.20;25.13;;;;;;;;;;5072683;28;20124;-60
2021/06/08 00:55:10;;;;;;;29.85;25.23;;;;;;;;;;5070593;28;20126;-60
2021/06/08 00:57:35;;;;;;;29.63;25.80;;;;;;;;;;5069248;28;20379;-60
2021/06/08 01:00:01;;;;;;;29.00;25.52;;;;;;;;;;5072496;28;20464;-59
2021/06/08 01:02:27;;;;;;;26.58;23.73;;;;;;;;;;5072304;28;20016;-59
2021/06/08 01:04:52;;;;;;;27.75;24.38;;;;;;;;;;5079124;28;20126;-60
2021/06/08 01:07:17;;;;;;;27.30;24.35;;;;;;;;;;5069552;28;20113;-59
2021/06/08 01:09:42;;;;;;;27.15;24.35;;;;;;;;;;5071874;28;20095;-60
2021/06/08 01:12:08;;;;;;;26.63;23.80;;;;;;;;;;5072275;28;20376;-60
2021/06/08 01:14:33;;;;;;;27.48;24.15;;;;;;;;;;5071689;28;20472;-60
2021/06/08 01:16:58;;;;;;;26.05;23.27;;;;;;;;;;5068535;28;20021;-59
2021/06/08 01:19:24;;;;;;;31.52;25.52;;;;;;;;;;5072193;28;20048;-60
2021/06/08 01:21:49;;;;;;;28.13;24.23;;;;;;;;;;5072048;28;20024;-60
2021/06/08 01:24:14;;;;;;;27.08;24.15;;;;;;;;;;5069696;28;20029;-60
2021/06/08 01:26:39;;;;;;;29.58;25.00;;;;;;;;;;5069673;28;20016;-60
2021/06/08 01:29:05;;;;;;;27.70;24.75;;;;;;;;;;5065963;28;20016;-60
2021/06/08 01:31:32;;;;;;;26.27;23.48;;;;;;;;;;5071682;28;20012;-60
2021/06/08 01:33:58;;;;;;;26.00;22.35;;;;;;;;;;5073502;28;20063;-60
2021/06/08 01:36:24;;;;;;;27.92;24.85;;;;;;;;;;5073771;28;20476;-60
2021/06/08 01:38:50;;;;;;;28.77;25.42;;;;;;;;;;5068637;28;20041;-60
2021/06/08 01:41:17;;;;;;;26.45;23.52;;;;;;;;;;5104236;28;20438;-60
2021/06/08 01:43:44;;;;;;;28.70;24.42;;;;;;;;;;5071696;28;20127;-60
2021/06/08 01:46:09;;;;;;;26.58;23.65;;;;;;;;;;5071939;28;20020;-60
2021/06/08 01:48:35;;;;;;;28.90;24.60;;;;;;;;;;5069178;28;20533;-60
2021/06/08 01:51:23;;;;;;;30.63;27.05;;;;;;;;;;5078606;28;20073;-60
2021/06/08 01:54:00;;;;;;;29.35;25.90;;;;;;;;;;5074484;28;20040;-60
2021/06/08 01:56:26;;;;;;;30.27;26.67;;;;;;;;;;5086727;28;20111;-60
2021/06/08 01:59:03;;;;;;;30.88;26.58;;;;;;;;;;5075312;28;20025;-60
2021/06/08 02:01:47;;;;;;;32.55;26.60;;;;;;;;;;5077942;28;20089;-60
2021/06/08 02:04:22;;;;;;;32.55;27.95;;;;;;;;;;5084410;28;20093;-60
2021/06/08 02:06:59;;;;;;;33.10;28.73;;;;;;;;;;5075489;28;20028;-61
2021/06/08 02:09:31;;;;;;;34.25;29.83;;;;;;;;;;5077131;28;20501;-60
2021/06/08 02:11:56;;;;;;;34.28;29.75;;;;;;;;;;5058544;28;20021;-60
2021/06/08 02:14:24;;;;;;;32.90;28.27;;;;;;;;;;5058550;28;20021;-60
2021/06/08 02:16:51;;;;;;;35.53;28.83;;;;;;;;;;5074488;28;20267;-58
2021/06/08 02:19:18;;;;;;;35.10;29.50;;;;;;;;;;5078439;28;20092;-60
2021/06/08 02:21:46;;;;;;;33.15;28.67;;;;;;;;;;5078288;28;20028;-60
2021/06/08 02:24:11;;;;;;;33.13;29.17;;;;;;;;;;5076938;28;20025;-60
2021/06/08 02:26:39;;;;;;;37.35;28.48;;;;;;;;;;5075126;28;20020;-60
2021/06/08 02:29:05;;;;;;;36.22;28.88;;;;;;;;;;5077200;28;20051;-60
2021/06/08 02:31:30;;;;;;;35.22;29.90;;;;;;;;;;5078079;28;20471;-60
2021/06/08 02:33:57;;;;;;;35.20;29.52;;;;;;;;;;5079520;28;20089;-60
2021/06/08 02:36:23;;;;;;;33.00;27.95;;;;;;;;;;5096280;28;20043;-59
2021/06/08 02:38:48;;;;;;;31.10;27.65;;;;;;;;;;5074525;28;20095;-60
2021/06/08 02:41:14;;;;;;;31.17;27.15;;;;;;;;;;5076775;28;20448;-60
2021/06/08 02:43:40;;;;;;;31.60;27.30;;;;;;;;;;5077540;28;20082;-60
2021/06/08 02:46:06;;;;;;;33.53;28.58;;;;;;;;;;5077928;28;20494;-59
2021/06/08 02:48:32;;;;;;;33.53;27.38;;;;;;;;;;5073741;28;20020;-60
2021/06/08 02:51:13;;;;;;;33.20;27.60;;;;;;;;;;5044062;28;20492;-60
2021/06/08 02:53:39;;;;;;;34.80;27.90;;;;;;;;;;5077588;28;20016;-60
2021/06/08 02:56:06;;;;;;;34.63;28.20;;;;;;;;;;5076864;28;20024;-60
2021/06/08 02:58:31;;;;;;;33.97;27.90;;;;;;;;;;5074583;28;20028;-59
2021/06/08 03:00:57;;;;;;;34.83;28.15;;;;;;;;;;5075129;28;20487;-60
2021/06/08 03:03:33;;;;;;;36.55;29.48;;;;;;;;;;5074078;28;20025;-60
2021/06/08 03:06:08;;;;;;;36.90;30.75;;;;;;;;;;5074693;28;20384;-60
2021/06/08 03:08:36;;;;;;;39.30;32.92;;;;;;;;;;5071546;28;20024;-59
2021/06/08 03:11:06;;;;;;;40.90;32.88;;;;;;;;;;5074767;28;20020;-60
2021/06/08 03:13:32;;;;;;;38.28;31.38;;;;;;;;;;5074169;28;20240;-60
2021/06/08 03:15:59;;;;;;;43.97;34.20;;;;;;;;;;5074716;28;20039;-60
2021/06/08 03:18:31;;;;;;;39.00;31.92;;;;;;;;;;5071685;28;20012;-60
2021/06/08 03:20:58;;;;;;;43.10;32.35;;;;;;;;;;5073389;28;20372;-60
2021/06/08 03:23:25;;;;;;;37.05;31.08;;;;;;;;;;5074070;28;20472;-60
2021/06/08 03:25:51;;;;;;;38.65;31.48;;;;;;;;;;5074591;28;20033;-60
2021/06/08 03:28:21;;;;;;;39.88;33.35;;;;;;;;;;5070853;28;20028;-60
2021/06/08 03:30:48;;;;;;;38.78;31.67;;;;;;;;;;5072034;28;20034;-60
2021/06/08 03:33:14;;;;;;;38.80;32.20;;;;;;;;;;5072683;28;20024;-60
2021/06/08 03:35:39;;;;;;;40.95;34.53;;;;;;;;;;5071542;28;20016;-60
2021/06/08 03:38:05;;;;;;;39.58;31.77;;;;;;;;;;5070883;28;20020;-59
2021/06/08 03:40:30;;;;;;;40.65;31.33;;;;;;;;;;5073969;28;20044;-60
2021/06/08 03:42:56;;;;;;;39.03;31.30;;;;;;;;;;5072262;28;20036;-60
2021/06/08 03:45:22;;;;;;;43.92;32.63;;;;;;;;;;5074850;28;20020;-60
2021/06/08 03:47:48;;;;;;;44.80;33.88;;;;;;;;;;5070632;28;20023;-61
2021/06/08 03:50:15;;;;;;;49.42;37.25;;;;;;;;;;5073732;28;20020;-61
2021/06/08 03:52:49;;;;;;;47.25;35.17;;;;;;;;;;5071972;28;20054;-61
2021/06/08 03:55:15;;;;;;;45.92;34.50;;;;;;;;;;5054285;28;20096;-61
2021/06/08 03:57:44;;;;;;;48.75;35.80;;;;;;;;;;5063849;28;20492;-60
2021/06/08 04:00:09;;;;;;;48.75;36.53;;;;;;;;;;5073490;28;20020;-62
2021/06/08 04:02:37;;;;;;;52.47;37.28;;;;;;;;;;5073183;28;20017;-62
2021/06/08 04:05:03;;;;;;;49.53;34.85;;;;;;;;;;5075093;28;20025;-61
2021/06/08 04:07:28;;;;;;;48.75;34.60;;;;;;;;;;5070400;28;20028;-61
2021/06/08 04:09:53;;;;;;;48.42;35.78;;;;;;;;;;5072010;28;20021;-60
2021/06/08 04:12:21;;;;;;;52.22;37.92;;;;;;;;;;5072923;28;20020;-61
2021/06/08 04:14:48;;;;;;;48.72;35.53;;;;;;;;;;5073405;28;20090;-61
2021/06/08 04:17:14;;;;;;;46.55;33.83;;;;;;;;;;5070373;28;20133;-61
2021/06/08 04:19:41;;;;;;;47.42;35.80;;;;;;;;;;5073705;28;20024;-61
2021/06/08 04:22:06;;;;;;;49.25;36.72;;;;;;;;;;5072803;28;20035;-61
2021/06/08 04:24:31;;;;;;;54.03;36.75;;;;;;;;;;5073211;28;20020;-61
2021/06/08 04:26:58;;;;;;;52.13;36.85;;;;;;;;;;5069759;28;20278;-61
2021/06/08 04:29:23;;;;;;;48.85;34.88;;;;;;;;;;5073229;28;20258;-61
2021/06/08 04:31:49;;;;;;;49.45;36.75;;;;;;;;;;5072676;28;20048;-61
2021/06/08 04:34:17;;;;;;;51.65;35.38;;;;;;;;;;5077117;28;20027;-61
2021/06/08 04:36:44;;;;;;;52.35;35.03;;;;;;;;;;5083882;28;20025;-61
2021/06/08 04:39:09;;;;;;;44.78;33.47;;;;;;;;;;5072028;28;20047;-61
2021/06/08 04:41:35;;;;;;;50.42;35.47;;;;;;;;;;5070421;28;20032;-61
2021/06/08 04:44:00;;;;;;;47.97;34.00;;;;;;;;;;5068012;28;20029;-61
2021/06/08 04:46:25;;;;;;;44.97;33.92;;;;;;;;;;5055631;28;20383;-61
2021/06/08 04:48:51;;;;;;;44.75;32.60;;;;;;;;;;5069500;28;20024;-61
2021/06/08 04:51:16;;;;;;;45.13;32.15;;;;;;;;;;5072249;28;20044;-61
2021/06/08 04:53:41;;;;;;;45.08;33.00;;;;;;;;;;5072168;28;20035;-60
2021/06/08 04:56:07;;;;;;;42.67;30.75;;;;;;;;;;5072430;28;20032;-61
2021/06/08 04:58:32;;;;;;;40.13;30.95;;;;;;;;;;5067295;28;20016;-60
2021/06/08 05:01:16;;;;;;;38.00;29.52;;;;;;;;;;5072808;28;20057;-60
2021/06/08 05:03:43;;;;;;;37.22;29.38;;;;;;;;;;5072300;28;20025;-60
2021/06/08 05:06:11;;;;;;;39.75;29.35;;;;;;;;;;5068660;28;20027;-60
2021/06/08 05:08:43;;;;;;;36.72;28.67;;;;;;;;;;5076264;28;20053;-60
2021/06/08 05:11:12;;;;;;;39.35;28.10;;;;;;;;;;5072363;28;20472;-60
2021/06/08 05:13:38;;;;;;;34.60;26.10;;;;;;;;;;5064266;28;20017;-60
2021/06/08 05:16:04;;;;;;;37.63;27.55;;;;;;;;;;5071763;28;20039;-60
2021/06/08 05:18:31;;;;;;;37.45;29.23;;;;;;;;;;5067247;28;20027;-60
2021/06/08 05:20:56;;;;;;;32.47;26.52;;;;;;;;;;5072285;28;20021;-60
2021/06/08 05:23:22;;;;;;;30.40;24.40;;;;;;;;;;5070373;28;20027;-60
2021/06/08 05:25:51;;;;;;;29.98;23.70;;;;;;;;;;5071121;28;20024;-59
2021/06/08 05:28:17;;;;;;;27.67;22.42;;;;;;;;;;5069260;28;20016;-60
2021/06/08 05:30:43;;;;;;;26.95;22.63;;;;;;;;;;5071898;28;20106;-60
2021/06/08 05:33:17;;;;;;;27.98;22.33;;;;;;;;;;5054800;28;20100;-60
2021/06/08 05:35:42;;;;;;;27.88;22.77;;;;;;;;;;5109647;27;20024;-60
2021/06/08 05:38:08;;;;;;;23.17;20.23;;;;;;;;;;5069422;28;20028;-60
2021/06/08 05:40:37;;;;;;;23.23;20.70;;;;;;;;;;5069675;28;20140;-60
2021/06/08 05:43:02;;;;;;;23.58;20.45;;;;;;;;;;5080663;28;20021;-62
2021/06/08 05:45:30;;;;;;;25.85;23.02;;;;;;;;;;5071148;28;20407;-61
2021/06/08 05:47:55;;;;;;;22.60;19.40;;;;;;;;;;5069191;28;20395;-61
2021/06/08 05:50:20;;;;;;;25.15;20.02;;;;;;;;;;5071863;28;20017;-61
2021/06/08 05:52:46;;;;;;;26.83;21.70;;;;;;;;;;5070609;28;20155;-60
2021/06/08 05:55:11;;;;;;;24.33;19.50;;;;;;;;;;5071154;28;20016;-61
2021/06/08 05:57:37;;;;;;;25.58;19.65;;;;;;;;;;5094840;28;20074;-61
2021/06/08 06:00:04;;;;;;;24.35;20.80;;;;;;;;;;5071806;28;20044;-60
2021/06/08 06:02:32;;;;;;;24.05;19.40;;;;;;;;;;5071733;28;20092;-60
2021/06/08 06:04:58;;;;;;;21.48;18.90;;;;;;;;;;5103151;28;20452;-60
2021/06/08 06:07:23;;;;;;;23.30;19.10;;;;;;;;;;5101623;28;20023;-60
2021/06/08 06:09:48;;;;;;;20.35;17.85;;;;;;;;;;5069087;28;20015;-60
2021/06/08 06:12:14;;;;;;;21.27;18.05;;;;;;;;;;5079104;28;20027;-60
2021/06/08 06:14:40;;;;;;;20.52;16.23;;;;;;;;;;5067933;28;20509;-60
2021/06/08 06:17:07;;;;;;;22.23;19.85;;;;;;;;;;5067236;28;20016;-60
2021/06/08 06:19:33;;;;;;;20.70;17.95;;;;;;;;;;5071011;28;20062;-60
2021/06/08 06:21:59;;;;;;;23.95;19.95;;;;;;;;;;5102656;28;20430;-60
2021/06/08 06:24:26;;;;;;;22.23;18.98;;;;;;;;;;5070454;28;20031;-60
2021/06/08 06:26:52;;;;;;;24.05;20.08;;;;;;;;;;5066694;28;20020;-61
2021/06/08 06:29:18;;;;;;;22.38;19.25;;;;;;;;;;5101004;28;20094;-61
2021/06/08 06:31:44;;;;;;;22.05;19.60;;;;;;;;;;5070982;28;20027;-61
2021/06/08 06:34:13;;;;;;;26.30;19.75;;;;;;;;;;5070607;28;20487;-61
2021/06/08 06:36:39;;;;;;;24.15;19.05;;;;;;;;;;5070991;28;20025;-61
2021/06/08 06:39:06;;;;;;;22.45;18.00;;;;;;;;;;5073073;28;20089;-61
2021/06/08 06:41:32;;;;;;;23.55;20.85;;;;;;;;;;5072897;28;20021;-60
2021/06/08 06:43:58;;;;;;;24.25;21.65;;;;;;;;;;5078311;28;20036;-60
2021/06/08 06:46:24;;;;;;;24.20;21.08;;;;;;;;;;5074657;28;20025;-60
2021/06/08 06:48:55;;;;;;;25.23;21.65;;;;;;;;;;5070235;28;20024;-60
2021/06/08 06:51:21;;;;;;;22.83;20.25;;;;;;;;;;5073550;28;20021;-60
2021/06/08 06:53:47;;;;;;;25.45;20.75;;;;;;;;;;5064097;28;20473;-61
2021/06/08 06:56:12;;;;;;;23.05;20.55;;;;;;;;;;5072309;28;20051;-60
2021/06/08 06:58:41;;;;;;;21.02;18.77;;;;;;;;;;5070014;28;20098;-60
2021/06/08 07:01:07;;;;;;;29.25;23.45;;;;;;;;;;5073657;28;20025;-60
2021/06/08 07:03:32;;;;;;;32.05;23.92;;;;;;;;;;5073776;28;20043;-60
2021/06/08 07:05:58;;;;;;;30.20;23.15;;;;;;;;;;5072557;28;20392;-60
2021/06/08 07:08:24;;;;;;;31.17;25.23;;;;;;;;;;5070808;28;20039;-60
2021/06/08 07:10:50;;;;;;;27.45;19.98;;;;;;;;;;5071572;28;20400;-60
2021/06/08 07:13:16;;;;;;;29.95;20.70;;;;;;;;;;5078747;28;20107;-61
2021/06/08 07:15:43;;;;;;;25.23;21.83;;;;;;;;;;5094171;28;20136;-59
2021/06/08 07:18:09;;;;;;;29.45;21.75;;;;;;;;;;5076508;28;20024;-60
2021/06/08 07:20:34;;;;;;;32.92;22.95;;;;;;;;;;5076646;28;20077;-60
2021/06/08 07:23:01;;;;;;;26.67;20.67;;;;;;;;;;5067885;28;20032;-61
2021/06/08 07:25:26;;;;;;;28.20;22.88;;;;;;;;;;5074213;28;20013;-60
2021/06/08 07:27:52;;;;;;;28.58;21.45;;;;;;;;;;5070159;28;20019;-60
2021/06/08 07:30:18;;;;;;;25.73;21.60;;;;;;;;;;5071832;28;20031;-60
2021/06/08 07:32:48;;;;;;;30.40;23.25;;;;;;;;;;5073802;28;20020;-59
2021/06/08 07:35:28;;;;;;;30.77;22.98;;;;;;;;;;5078228;28;20081;-60
2021/06/08 07:37:54;;;;;;;32.22;23.10;;;;;;;;;;5069210;28;20071;-60
2021/06/08 07:40:26;;;;;;;31.42;23.50;;;;;;;;;;5072921;28;20033;-61
2021/06/08 07:42:52;;;;;;;28.50;22.17;;;;;;;;;;5073189;28;20032;-61
2021/06/08 07:45:37;;;;;;;30.40;22.70;;;;;;;;;;5053994;28;20244;-60
2021/06/08 07:48:04;;;;;;;27.63;21.17;;;;;;;;;;5068813;28;20028;-61
2021/06/08 07:50:31;;;;;;;24.70;20.40;;;;;;;;;;5073241;28;20040;-60
2021/06/08 07:52:57;;;;;;;26.77;21.20;;;;;;;;;;5073922;28;20434;-61
2021/06/08 07:55:22;;;;;;;25.85;21.45;;;;;;;;;;5073618;28;20021;-60
2021/06/08 07:57:48;;;;;;;23.83;19.73;;;;;;;;;;5070109;28;20069;-60
2021/06/08 08:00:14;;;;;;;24.23;20.10;;;;;;;;;;5073314;28;20024;-60
2021/06/08 08:02:40;;;;;;;25.48;20.95;;;;;;;;;;5073097;28;20025;-61
2021/06/08 08:05:08;;;;;;;26.08;20.10;;;;;;;;;;5073010;28;20529;-60
2021/06/08 08:07:33;;;;;;;28.95;21.20;;;;;;;;;;5068537;28;20040;-61
2021/06/08 08:10:00;;;;;;;28.42;21.27;;;;;;;;;;5072932;28;20456;-61
2021/06/08 08:12:25;;;;;;;24.75;19.65;;;;;;;;;;5062369;28;20066;-61
2021/06/08 08:14:52;;;;;;;26.40;19.90;;;;;;;;;;5058413;28;20016;-61
2021/06/08 08:17:17;;;;;;;26.70;20.92;;;;;;;;;;5067028;28;20051;-60
2021/06/08 08:19:43;;;;;;;24.38;20.15;;;;;;;;;;5072658;28;20480;-61
2021/06/08 08:22:09;;;;;;;24.63;18.67;;;;;;;;;;5071948;28;20028;-60
2021/06/08 08:24:34;;;;;;;25.85;20.08;;;;;;;;;;5072699;28;20488;-61
2021/06/08 08:27:03;;;;;;;26.23;20.60;;;;;;;;;;5068466;28;20145;-61
2021/06/08 08:29:29;;;;;;;26.38;21.48;;;;;;;;;;5072457;28;20020;-61
2021/06/08 08:31:54;;;;;;;24.90;19.83;;;;;;;;;;5073107;28;20012;-61
2021/06/08 08:34:20;;;;;;;25.77;20.33;;;;;;;;;;5074880;28;20028;-61
2021/06/08 08:36:45;;;;;;;22.50;18.80;;;;;;;;;;5070427;28;20016;-61
2021/06/08 08:39:11;;;;;;;21.38;18.05;;;;;;;;;;5071310;28;20047;-61
2021/06/08 08:41:37;;;;;;;23.65;19.02;;;;;;;;;;5070082;28;20054;-61
2021/06/08 08:44:03;;;;;;;21.60;18.27;;;;;;;;;;5073423;28;20024;-61
2021/06/08 08:46:29;;;;;;;23.25;18.52;;;;;;;;;;5070539;28;20025;-60
2021/06/08 08:48:55;;;;;;;24.00;18.88;;;;;;;;;;5072910;28;20005;-61
2021/06/08 08:51:21;;;;;;;22.60;18.42;;;;;;;;;;5083030;28;20464;-60
2021/06/08 08:53:47;;;;;;;23.10;18.58;;;;;;;;;;5113671;27;20119;-61
2021/06/08 08:56:15;;;;;;;23.42;19.15;;;;;;;;;;5081347;28;20107;-61
2021/06/08 08:58:40;;;;;;;22.92;18.08;;;;;;;;;;5061507;28;20545;-61
2021/06/08 09:01:06;;;;;;;23.40;19.13;;;;;;;;;;5070740;28;20050;-60
2021/06/08 09:03:32;;;;;;;21.77;18.92;;;;;;;;;;5062707;28;20062;-61
2021/06/08 09:05:59;;;;;;;25.10;20.20;;;;;;;;;;5072073;28;20019;-61
2021/06/08 09:08:24;;;;;;;28.70;23.35;;;;;;;;;;5059986;28;20476;-61
2021/06/08 09:10:50;;;;;;;28.15;20.83;;;;;;;;;;5104997;28;20097;-61
2021/06/08 09:13:16;;;;;;;23.80;19.85;;;;;;;;;;5072192;28;20104;-60
2021/06/08 09:15:41;;;;;;;24.33;21.38;;;;;;;;;;5105472;27;20028;-61
2021/06/08 09:18:07;;;;;;;27.63;22.65;;;;;;;;;;5069935;28;20078;-61
2021/06/08 09:20:33;;;;;;;29.95;22.30;;;;;;;;;;5063927;28;20020;-61
2021/06/08 09:23:02;;;;;;;28.30;21.13;;;;;;;;;;5065890;28;20036;-61
2021/06/08 09:25:34;;;;;;;27.90;22.35;;;;;;;;;;5071779;28;20199;-61
2021/06/08 09:28:18;;;;;;;29.15;22.92;;;;;;;;;;5072486;28;20103;-61
2021/06/08 09:30:44;;;;;;;23.92;20.52;;;;;;;;;;5070105;28;20070;-61
2021/06/08 09:33:18;;;;;;;26.33;21.60;;;;;;;;;;5071290;28;20020;-61
2021/06/08 09:35:50;;;;;;;24.75;20.98;;;;;;;;;;5073227;28;20509;-61
2021/06/08 09:38:16;;;;;;;21.58;18.55;;;;;;;;;;5071250;28;20543;-61
2021/06/08 09:40:42;;;;;;;24.00;19.45;;;;;;;;;;5073243;28;20115;-61
2021/06/08 09:43:11;;;;;;;24.10;20.77;;;;;;;;;;5072710;28;20036;-61
2021/06/08 09:45:44;;;;;;;22.02;18.40;;;;;;;;;;5070369;28;20040;-61
2021/06/08 09:48:10;;;;;;;25.33;20.10;;;;;;;;;;5066203;28;20013;-61
2021/06/08 09:50:37;;;;;;;22.75;20.33;;;;;;;;;;5108623;28;20022;-59
2021/06/08 09:53:21;;;;;;;21.60;19.40;;;;;;;;;;5075373;28;20048;-62
2021/06/08 09:55:57;;;;;;;22.60;20.02;;;;;;;;;;5070458;28;20016;-61
2021/06/08 09:58:22;;;;;;;23.05;20.65;;;;;;;;;;5073506;28;20376;-61
2021/06/08 10:01:06;;;;;;;24.85;19.98;;;;;;;;;;5072128;28;20037;-61
2021/06/08 10:03:36;;;;;;;23.40;20.73;;;;;;;;;;5070197;28;20025;-61
2021/06/08 10:06:09;;;;;;;23.55;19.55;;;;;;;;;;5104521;28;20024;-61
2021/06/08 10:08:36;;;;;;;21.23;19.13;;;;;;;;;;5081078;28;20122;-61
2021/06/08 10:11:01;;;;;;;21.45;17.55;;;;;;;;;;5064824;28;20021;-61
2021/06/08 10:13:26;;;;;;;18.65;16.75;;;;;;;;;;5087573;28;20468;-61
2021/06/08 10:15:52;;;;;;;21.20;19.05;;;;;;;;;;5096155;28;20043;-60
2021/06/08 10:18:17;;;;;;;20.77;18.65;;;;;;;;;;5075046;28;20070;-60
2021/06/08 10:20:56;;;;;;;20.63;18.40;;;;;;;;;;5083540;28;20020;-61
2021/06/08 10:23:27;;;;;;;19.05;17.25;;;;;;;;;;5075162;28;20099;-61
2021/06/08 10:25:53;;;;;;;19.58;17.55;;;;;;;;;;5075479;28;20017;-61
2021/06/08 10:28:19;;;;;;;20.00;17.92;;;;;;;;;;5071684;28;20051;-60
2021/06/08 10:30:45;;;;;;;19.10;17.05;;;;;;;;;;5120233;27;20100;-60
2021/06/08 10:33:10;;;;;;;21.00;19.00;;;;;;;;;;5107923;28;20028;-60
2021/06/08 10:35:36;;;;;;;19.65;17.65;;;;;;;;;;5089258;28;20016;-60
2021/06/08 10:38:05;;;;;;;21.98;18.98;;;;;;;;;;5091887;28;20031;-60
2021/06/08 10:40:35;;;;;;;17.60;15.80;;;;;;;;;;5077258;28;20054;-60
2021/06/08 10:43:00;;;;;;;19.23;17.35;;;;;;;;;;5103896;28;20116;-61
2021/06/08 10:45:36;;;;;;;17.58;15.82;;;;;;;;;;5069937;28;20100;-61
2021/06/08 10:48:07;;;;;;;17.55;15.70;;;;;;;;;;5068692;28;20036;-61
2021/06/08 10:50:33;;;;;;;16.05;14.40;;;;;;;;;;5077303;28;20464;-60
2021/06/08 10:52:59;;;;;;;17.67;15.88;;;;;;;;;;5074743;28;20111;-61
2021/06/08 10:55:28;;;;;;;18.65;16.85;;;;;;;;;;5068614;28;20104;-61
2021/06/08 10:57:54;;;;;;;18.77;16.50;;;;;;;;;;5060002;28;20107;-61
2021/06/08 11:00:25;;;;;;;16.25;14.55;;;;;;;;;;5107926;27;20048;-61
2021/06/08 11:03:00;;;;;;;17.48;15.68;;;;;;;;;;5066531;28;20025;-61
2021/06/08 11:05:43;;;;;;;17.60;15.90;;;;;;;;;;5059917;28;20419;-61
2021/06/08 11:08:08;;;;;;;14.38;12.98;;;;;;;;;;5071803;28;20024;-61
2021/06/08 11:10:34;;;;;;;17.07;15.27;;;;;;;;;;5073734;28;20558;-61
2021/06/08 11:13:12;;;;;;;16.50;14.80;;;;;;;;;;5074226;28;20266;-59
2021/06/08 11:15:45;;;;;;;14.55;13.07;;;;;;;;;;5073805;28;20021;-59
2021/06/08 11:18:19;;;;;;;11.65;10.55;;;;;;;;;;5071184;28;20466;-60
2021/06/08 11:20:46;;;;;;;16.65;15.00;;;;;;;;;;5086492;28;20468;-60
2021/06/08 11:23:30;;;;;;;18.60;16.02;;;;;;;;;;5076204;28;20391;-60
2021/06/08 11:25:55;;;;;;;;;;;;;;;;;;5074084;28;20016;-60
2021/06/08 11:28:21;;;;;;;17.20;15.37;;;;;;;;;;5071615;28;19905;-60
2021/06/08 11:30:52;;;;;;;19.88;17.90;;;;;;;;;;5073847;28;20025;-60
2021/06/08 11:33:29;;;;;;;19.05;17.20;;;;;;;;;;5074145;28;20017;-62
2021/06/08 11:35:55;;;;;;;15.45;13.85;;;;;;;;;;5087675;28;20504;-59
2021/06/08 11:38:23;;;;;;;15.98;14.27;;;;;;;;;;5071326;28;20104;-60
2021/06/08 11:40:59;;;;;;;14.60;13.20;;;;;;;;;;5073629;28;20036;-60
2021/06/08 11:43:24;;;;;;;12.77;11.55;;;;;;;;;;5063392;28;20086;-61
2021/06/08 11:46:12;;;;;;;10.60;9.43;;;;;;;;;;5079773;28;20032;-61
2021/06/08 11:48:44;;;;;;;14.07;12.77;;;;;;;;;;5063738;28;20024;-61
2021/06/08 11:51:15;;;;;;;13.32;12.20;;;;;;;;;;5089158;28;20024;-61
2021/06/08 11:53:55;;;;;;;12.38;11.18;;;;;;;;;;5077891;28;20184;-61
2021/06/08 11:56:39;;;;;;;15.73;14.13;;;;;;;;;;5071040;28;20017;-61
2021/06/08 11:59:05;;;;;;;;;;;;;;;;;;5114020;27;20012;-61
2021/06/08 12:01:40;;;;;;;17.43;15.73;;;;;;;;;;5086576;28;19915;-61
2021/06/08 12:04:06;;;;;;;15.35;13.80;;;;;;;;;;5084124;28;20020;-61
2021/06/08 12:06:50;;;;;;;14.57;13.25;;;;;;;;;;5070155;28;20020;-61
2021/06/08 12:09:17;;;;;;;14.77;13.38;;;;;;;;;;5078155;28;20027;-62
2021/06/08 12:11:42;;;;;;;14.25;12.95;;;;;;;;;;5076532;28;20019;-61
2021/06/08 12:14:08;;;;;;;14.20;12.75;;;;;;;;;;5073123;28;20099;-61
2021/06/08 12:16:33;;;;;;;13.82;12.70;;;;;;;;;;5071798;28;20027;-61
2021/06/08 12:19:05;;;;;;;13.82;12.15;;;;;;;;;;5118755;27;20110;-61
2021/06/08 12:21:31;;;;;;;15.43;13.85;;;;;;;;;;5073167;28;20107;-61
2021/06/08 12:23:57;;;;;;;14.23;13.02;;;;;;;;;;5073222;28;20103;-61
2021/06/08 12:26:23;;;;;;;13.23;10.68;;;;;;;;;;5064690;28;20013;-61
2021/06/08 12:29:00;;;;;;;12.95;11.65;;;;;;;;;;5066250;28;20028;-62
2021/06/08 12:31:25;;;;;;;13.75;12.55;;;;;;;;;;5068178;28;20476;-61
2021/06/08 12:33:51;;;;;;;16.13;14.77;;;;;;;;;;5071978;28;20082;-61
2021/06/08 12:36:16;;;;;;;13.93;12.63;;;;;;;;;;5073070;28;20027;-61
2021/06/08 12:38:45;;;;;;;13.02;10.75;;;;;;;;;;5088523;28;20028;-61
2021/06/08 12:41:11;;;;;;;10.20;9.30;;;;;;;;;;5070702;28;20411;-61
2021/06/08 12:43:56;;;;;;;9.93;9.02;;;;;;;;;;5065401;28;20032;-62
2021/06/08 12:46:25;;;;;;;11.68;10.63;;;;;;;;;;5054171;28;20099;-62
2021/06/08 12:49:02;;;;;;;11.30;10.40;;;;;;;;;;5054193;28;20044;-63
2021/06/08 12:51:35;;;;;;;11.45;10.43;;;;;;;;;;5066841;28;20055;-60
2021/06/08 12:54:00;;;;;;;10.95;9.95;;;;;;;;;;5105067;28;20025;-61
2021/06/08 12:56:26;;;;;;;10.45;9.65;;;;;;;;;;5071971;28;20023;-60
2021/06/08 12:58:51;;;;;;;9.57;8.80;;;;;;;;;;5070051;28;20052;-60
2021/06/08 13:01:17;;;;;;;10.32;9.35;;;;;;;;;;5080134;28;20353;-60
2021/06/08 13:03:44;;;;;;;9.07;8.38;;;;;;;;;;5072093;28;20016;-60
2021/06/08 13:06:11;;;;;;;7.88;7.15;;;;;;;;;;5072442;28;20016;-60
2021/06/08 13:08:36;;;;;;;6.68;6.13;;;;;;;;;;5069108;28;20092;-60
2021/06/08 13:11:01;;;;;;;9.40;8.48;;;;;;;;;;5072065;28;20413;-60
2021/06/08 13:13:31;;;;;;;9.13;8.33;;;;;;;;;;5072069;28;20020;-60
2021/06/08 13:15:56;;;;;;;8.77;7.97;;;;;;;;;;5070501;28;20282;-60
2021/06/08 13:18:23;;;;;;;6.60;6.10;;;;;;;;;;5068293;28;20024;-60
2021/06/08 13:20:48;;;;;;;6.13;5.65;;;;;;;;;;5070409;28;20616;-60
2021/06/08 13:23:27;;;;;;;7.33;6.73;;;;;;;;;;5071626;28;20028;-60
2021/06/08 13:25:58;;;;;;;9.60;7.32;;;;;;;;;;5052229;28;20021;-61
2021/06/08 13:28:43;;;;;;;7.05;6.20;;;;;;;;;;5063314;28;20024;-60
2021/06/08 13:31:10;;;;;;;6.55;6.05;;;;;;;;;;5063204;28;20038;-60
2021/06/08 13:33:37;;;;;;;5.63;5.20;;;;;;;;;;5071854;28;20027;-60
2021/06/08 13:36:03;;;;;;;6.30;5.82;;;;;;;;;;5091557;28;20055;-60
2021/06/08 13:38:28;;;;;;;7.47;6.88;;;;;;;;;;5074389;28;20521;-60
2021/06/08 13:40:54;;;;;;;6.40;5.80;;;;;;;;;;5071287;28;20032;-60
2021/06/08 13:43:19;;;;;;;6.70;6.20;;;;;;;;;;5066905;28;20040;-60
2021/06/08 13:45:45;;;;;;;5.50;5.00;;;;;;;;;;5051197;28;20563;-60
2021/06/08 13:48:18;;;;;;;5.10;4.75;;;;;;;;;;5060087;28;20016;-60
2021/06/08 13:50:44;;;;;;;6.13;4.95;;;;;;;;;;5070880;28;20051;-61
2021/06/08 13:53:16;;;;;;;6.57;5.97;;;;;;;;;;5069577;28;20064;-60
2021/06/08 13:55:55;;;;;;;5.38;4.97;;;;;;;;;;5070720;28;20580;-60
2021/06/08 14:01:14;;;;;;;5.47;4.95;;;;;;;;;;5069931;28;20032;-60
2021/06/08 14:03:40;;;;;;;4.70;4.30;;;;;;;;;;5071575;28;20077;-60
2021/06/08 14:06:16;;;;;;;4.35;4.05;;;;;;;;;;5071831;28;20426;-60
2021/06/08 14:08:42;;;;;;;4.32;4.00;;;;;;;;;;5068204;28;20495;-62
2021/06/08 14:11:07;;;;;;;4.18;3.80;;;;;;;;;;5067182;28;20029;-60
2021/06/08 14:13:41;;;;;;;4.13;3.83;;;;;;;;;;5052063;28;20021;-60
2021/06/08 14:16:06;;;;;;;3.47;3.17;;;;;;;;;;5052243;28;20354;-60
2021/06/08 14:18:32;;;;;;;3.50;3.30;;;;;;;;;;5064220;28;20035;-60
2021/06/08 14:20:58;;;;;;;3.60;3.35;;;;;;;;;;5071148;28;20016;-60
2021/06/08 14:23:23;;;;;;;4.15;3.85;;;;;;;;;;5071625;28;20078;-60
2021/06/08 14:25:48;;;;;;;2.85;2.65;;;;;;;;;;5071567;28;20032;-60
2021/06/08 14:28:13;;;;;;;3.67;2.77;;;;;;;;;;5067320;28;20063;-61